createdAt,value
2023-03-31T00:02:13.406Z,4.15
2023-03-31T00:05:01.644Z,4.10
2023-03-31T00:07:49.576Z,4.23
2023-03-31T00:10:37.165Z,4.55
2023-03-31T00:13:25.044Z,4.88
2023-03-31T00:16:12.876Z,4.47
2023-03-31T00:19:02.256Z,4.40
2023-03-31T00:21:51.610Z,4.60
2023-03-31T00:24:39.005Z,4.32
2023-03-31T00:27:28.281Z,4.40
2023-03-31T00:30:16.211Z,4.80
2023-03-31T00:33:03.498Z,4.80
2023-03-31T00:35:55.675Z,4.35
2023-03-31T00:38:46.554Z,5.00
2023-03-31T00:41:33.788Z,4.43
2023-03-31T00:44:24.932Z,5.03
2023-03-31T00:47:16.978Z,5.38
2023-03-31T00:50:04.353Z,5.13
2023-03-31T00:52:58.041Z,5.32
2023-03-31T00:55:50.106Z,5.25
2023-03-31T00:58:43.689Z,4.67
2023-03-31T01:01:31.627Z,4.68
2023-03-31T01:04:22.622Z,4.57
2023-03-31T01:07:19.275Z,4.60
2023-03-31T01:10:10.262Z,4.50
2023-03-31T01:12:59.024Z,4.85
2023-03-31T01:15:46.341Z,4.57
2023-03-31T01:18:34.986Z,5.00
2023-03-31T01:22:14.030Z,4.38
2023-03-31T01:25:29.216Z,4.65
2023-03-31T01:28:27.832Z,4.50
2023-03-31T01:31:53.363Z,4.40
2023-03-31T01:35:12.284Z,4.60
2023-03-31T01:38:41.388Z,4.45
2023-03-31T01:41:42.628Z,4.30
2023-03-31T01:44:42.056Z,4.13
2023-03-31T01:47:40.517Z,4.20
2023-03-31T01:50:32.800Z,4.03
2023-03-31T01:53:26.035Z,4.17
2023-03-31T01:56:17.557Z,4.20
2023-03-31T01:59:12.018Z,4.32
2023-03-31T02:02:04.438Z,4.07
2023-03-31T02:04:59.277Z,4.65
2023-03-31T02:07:51.228Z,3.90
2023-03-31T02:10:40.496Z,3.70
2023-03-31T02:13:30.192Z,3.65
2023-03-31T02:16:24.540Z,3.40
2023-03-31T02:19:14.145Z,3.40
2023-03-31T02:22:03.621Z,3.20
2023-03-31T02:24:53.501Z,3.13
2023-03-31T02:27:44.466Z,3.30
2023-03-31T02:30:39.174Z,2.97
2023-03-31T02:33:28.799Z,3.00
2023-03-31T02:36:16.456Z,2.90
2023-03-31T02:39:07.988Z,2.70
2023-03-31T02:41:55.781Z,2.63
2023-03-31T02:44:43.208Z,2.63
2023-03-31T02:47:30.663Z,2.70
2023-03-31T02:50:19.797Z,2.65
2023-03-31T02:53:13.370Z,2.37
2023-03-31T02:56:11.963Z,2.78
2023-03-31T02:59:21.331Z,2.33
2023-03-31T03:02:18.833Z,2.60
2023-03-31T03:05:20.322Z,2.50
2023-03-31T03:08:33.758Z,2.20
2023-03-31T03:11:27.254Z,2.47
2023-03-31T03:14:24.888Z,2.67
2023-03-31T03:17:16.922Z,2.60
2023-03-31T03:20:09.521Z,2.65
2023-03-31T03:22:58.604Z,2.58
2023-03-31T03:25:46.986Z,2.80
2023-03-31T03:28:34.635Z,2.67
2023-03-31T03:31:24.079Z,2.65
2023-03-31T03:34:11.827Z,2.80
2023-03-31T03:36:59.571Z,2.70
2023-03-31T03:39:48.577Z,2.60
2023-03-31T03:42:36.670Z,2.63
2023-03-31T03:45:24.306Z,2.80
2023-03-31T03:48:11.215Z,2.92
2023-03-31T03:51:01.452Z,2.88
2023-03-31T03:53:48.221Z,3.08
2023-03-31T03:56:37.174Z,2.72
2023-03-31T03:59:25.210Z,2.90
2023-03-31T04:02:13.113Z,3.00
2023-03-31T04:05:00.828Z,3.00
2023-03-31T04:07:47.927Z,3.27
2023-03-31T04:10:36.377Z,3.33
2023-03-31T04:13:25.055Z,3.20
2023-03-31T04:16:12.383Z,3.55
2023-03-31T04:19:03.752Z,3.80
2023-03-31T04:21:58.826Z,3.63
2023-03-31T04:24:52.850Z,3.80
2023-03-31T04:27:46.748Z,3.78
2023-03-31T04:30:39.972Z,3.10
2023-03-31T04:33:26.891Z,3.60
2023-03-31T04:36:17.908Z,3.23
2023-03-31T04:39:05.590Z,3.40
2023-03-31T04:41:52.856Z,3.67
2023-03-31T04:44:40.160Z,3.43
2023-03-31T04:47:29.286Z,3.60
2023-03-31T04:50:17.325Z,3.60
2023-03-31T04:53:05.438Z,3.67
2023-03-31T04:55:53.060Z,3.55
2023-03-31T04:58:41.102Z,3.50
2023-03-31T05:01:28.487Z,3.50
2023-03-31T05:04:17.732Z,3.75
2023-03-31T05:07:05.860Z,3.40
2023-03-31T05:09:53.429Z,3.80
2023-03-31T05:12:41.594Z,3.90
2023-03-31T05:15:28.840Z,3.67
2023-03-31T05:18:17.640Z,3.88
2023-03-31T05:21:17.374Z,3.83
2023-03-31T05:24:05.025Z,3.55
2023-03-31T05:26:53.639Z,4.25
2023-03-31T05:29:41.579Z,4.47
2023-03-31T05:32:29.317Z,4.50
2023-03-31T05:35:17.829Z,4.60
2023-03-31T05:38:07.862Z,4.17
2023-03-31T05:40:55.141Z,4.13
2023-03-31T05:43:43.500Z,4.40
2023-03-31T05:46:31.006Z,3.75
2023-03-31T05:49:19.093Z,3.58
2023-03-31T05:52:07.305Z,3.80
2023-03-31T05:54:56.546Z,3.80
2023-03-31T05:57:43.792Z,4.20
2023-03-31T06:00:32.105Z,3.95
2023-03-31T06:03:22.764Z,3.80
2023-03-31T06:06:13.276Z,4.10
2023-03-31T06:09:00.861Z,3.92
2023-03-31T06:11:50.598Z,3.70
2023-03-31T06:14:38.842Z,4.00
2023-03-31T06:17:27.816Z,4.05
2023-03-31T06:20:27.335Z,4.30
2023-03-31T06:23:15.834Z,4.05
2023-03-31T06:26:04.705Z,4.22
2023-03-31T06:28:54.196Z,4.32
2023-03-31T06:31:41.974Z,4.53
2023-03-31T06:34:30.245Z,4.10
2023-03-31T06:37:17.946Z,4.47
2023-03-31T06:40:06.644Z,4.25
2023-03-31T06:42:54.380Z,4.07
2023-03-31T06:45:44.373Z,4.57
2023-03-31T06:48:32.449Z,4.45
2023-03-31T06:51:20.647Z,4.55
2023-03-31T06:54:08.808Z,4.53
2023-03-31T06:56:55.911Z,5.05
2023-03-31T06:59:44.261Z,4.35
2023-03-31T07:02:33.340Z,4.32
2023-03-31T07:05:26.996Z,4.63
2023-03-31T07:08:14.488Z,4.85
2023-03-31T07:11:02.871Z,4.57
2023-03-31T07:13:50.104Z,5.03
2023-03-31T07:16:38.415Z,4.60
2023-03-31T07:19:26.983Z,4.40
2023-03-31T07:22:15.144Z,4.63
2023-03-31T07:25:03.472Z,4.80
2023-03-31T07:27:50.919Z,5.20
2023-03-31T07:30:38.171Z,4.95
2023-03-31T07:33:25.776Z,5.20
2023-03-31T07:36:14.863Z,4.95
2023-03-31T07:39:07.219Z,5.05
2023-03-31T07:41:54.292Z,5.10
2023-03-31T07:44:42.100Z,5.25
2023-03-31T07:47:30.761Z,4.85
2023-03-31T07:50:20.879Z,5.15
2023-03-31T07:53:12.443Z,4.88
2023-03-31T07:56:02.572Z,4.82
2023-03-31T07:58:51.335Z,5.20
2023-03-31T08:01:38.984Z,5.38
2023-03-31T08:04:27.336Z,5.53
2023-03-31T08:07:16.589Z,5.90
2023-03-31T08:10:05.974Z,6.10
2023-03-31T08:12:53.813Z,5.80
2023-03-31T08:15:41.748Z,5.57
2023-03-31T08:18:29.254Z,5.93
2023-03-31T08:21:16.796Z,6.32
2023-03-31T08:24:04.049Z,6.43
2023-03-31T08:26:53.793Z,5.37
2023-03-31T08:29:42.136Z,5.30
2023-03-31T08:32:30.183Z,5.28
2023-03-31T08:35:18.194Z,5.45
2023-03-31T08:38:06.549Z,5.63
2023-03-31T08:41:00.755Z,5.25
2023-03-31T08:43:57.006Z,5.55
2023-03-31T08:46:45.662Z,5.30
2023-03-31T08:49:41.464Z,4.88
2023-03-31T08:52:35.035Z,4.80
2023-03-31T08:55:32.483Z,4.28
2023-03-31T08:58:31.357Z,3.65
2023-03-31T09:01:27.560Z,3.90
2023-03-31T09:04:26.033Z,3.83
2023-03-31T09:07:20.250Z,3.90
2023-03-31T09:10:24.933Z,3.80
2023-03-31T09:13:38.971Z,4.10
2023-03-31T09:16:32.228Z,4.18
2023-03-31T09:19:25.708Z,4.72
2023-03-31T09:22:19.722Z,4.28
2023-03-31T09:25:11.834Z,3.88
2023-03-31T09:28:01.343Z,4.05
2023-03-31T09:30:50.798Z,5.05
2023-03-31T09:33:43.982Z,4.30
2023-03-31T09:36:31.117Z,4.47
2023-03-31T09:39:18.697Z,5.03
2023-03-31T09:42:07.146Z,4.33
2023-03-31T09:44:55.173Z,4.68
2023-03-31T09:47:45.101Z,5.00
2023-03-31T09:50:46.527Z,5.57
2023-03-31T09:53:39.686Z,5.30
2023-03-31T09:56:50.646Z,5.43
2023-03-31T09:59:38.227Z,5.50
2023-03-31T10:02:42.218Z,5.50
2023-03-31T10:05:32.412Z,5.78
2023-03-31T10:08:26.597Z,5.72
2023-03-31T10:11:14.735Z,5.78
2023-03-31T10:14:06.249Z,5.45
2023-03-31T10:16:57.068Z,5.47
2023-03-31T10:19:50.262Z,5.90
2023-03-31T10:22:46.336Z,5.70
2023-03-31T10:25:36.550Z,5.35
2023-03-31T10:28:24.517Z,5.22
2023-03-31T10:31:12.113Z,5.13
2023-03-31T10:34:00.202Z,5.00
2023-03-31T10:36:50.135Z,5.03
2023-03-31T10:39:39.420Z,5.10
2023-03-31T10:42:29.808Z,5.47
2023-03-31T10:45:37.293Z,4.97
2023-03-31T10:48:29.102Z,5.10
2023-03-31T10:51:26.991Z,4.88
2023-03-31T10:54:14.170Z,5.32
2023-03-31T10:57:05.615Z,4.97
2023-03-31T11:00:13.045Z,4.95
2023-03-31T11:03:32.831Z,5.07
2023-03-31T11:06:27.323Z,5.32
2023-03-31T11:09:32.966Z,5.05
2023-03-31T11:12:26.065Z,5.53
2023-03-31T11:15:23.175Z,5.40
2023-03-31T11:18:44.424Z,5.35
2023-03-31T11:21:43.999Z,5.10
2023-03-31T11:25:05.952Z,4.88
2023-03-31T11:28:22.784Z,5.33
2023-03-31T11:31:28.901Z,4.75
2023-03-31T11:34:29.713Z,4.80
2023-03-31T11:37:41.789Z,4.47
2023-03-31T11:40:47.531Z,4.05
2023-03-31T11:43:39.870Z,4.18
2023-03-31T11:46:37.295Z,3.50
2023-03-31T11:49:27.643Z,3.78
2023-03-31T11:52:18.438Z,4.03
2023-03-31T11:55:15.474Z,4.05
2023-03-31T11:58:07.399Z,4.10
2023-03-31T12:01:03.269Z,4.13
2023-03-31T12:04:02.252Z,3.70
2023-03-31T12:06:51.326Z,4.13
2023-03-31T12:09:51.541Z,4.15
2023-03-31T12:12:45.017Z,3.70
2023-03-31T12:15:38.899Z,4.30
2023-03-31T12:18:29.288Z,3.70
2023-03-31T12:21:18.744Z,4.10
2023-03-31T12:24:08.302Z,4.10
2023-03-31T12:27:06.203Z,4.22
2023-03-31T12:29:58.245Z,4.03
2023-03-31T12:32:49.025Z,4.20
2023-03-31T12:35:45.719Z,4.00
2023-03-31T12:38:50.612Z,3.93
2023-03-31T12:41:45.932Z,4.10
2023-03-31T12:44:50.886Z,4.22
2023-03-31T12:47:57.608Z,3.90
2023-03-31T12:51:05.990Z,3.20
2023-03-31T12:54:08.767Z,3.40
2023-03-31T12:57:17.302Z,3.65
2023-03-31T13:00:22.924Z,3.95
2023-03-31T13:03:41.657Z,3.70
2023-03-31T13:06:52.581Z,3.90
2023-03-31T13:09:53.109Z,3.35
2023-03-31T13:12:40.922Z,3.30
2023-03-31T13:15:30.057Z,3.10
2023-03-31T13:18:22.237Z,3.00
2023-03-31T13:21:12.349Z,3.05
2023-03-31T13:24:02.745Z,2.92
2023-03-31T13:26:54.126Z,2.80
2023-03-31T13:29:45.048Z,2.47
2023-03-31T13:32:32.104Z,2.53
2023-03-31T13:35:25.857Z,2.30
2023-03-31T13:38:24.426Z,2.28
2023-03-31T13:41:33.778Z,2.40
2023-03-31T13:44:44.234Z,2.30
2023-03-31T13:48:01.298Z,2.38
2023-03-31T13:51:02.201Z,2.20
2023-03-31T13:54:20.138Z,2.00
2023-03-31T13:57:29.382Z,2.15
2023-03-31T14:00:27.315Z,2.85
2023-03-31T14:03:23.033Z,3.00
2023-03-31T14:06:20.874Z,2.63
2023-03-31T14:09:10.824Z,3.60
2023-03-31T14:12:00.004Z,3.13
2023-03-31T14:14:46.807Z,2.97
2023-03-31T14:17:38.909Z,2.90
2023-03-31T14:20:36.305Z,1.90
2023-03-31T14:23:36.737Z,1.73
2023-03-31T14:26:39.345Z,1.50
2023-03-31T14:29:32.585Z,1.60
2023-03-31T14:32:29.765Z,1.40
2023-03-31T14:35:32.744Z,1.40
2023-03-31T14:38:22.243Z,1.33
2023-03-31T14:41:21.277Z,1.13
2023-03-31T14:44:09.348Z,1.30
2023-03-31T14:46:59.208Z,1.10
2023-03-31T14:49:46.649Z,1.27
2023-03-31T14:52:35.894Z,1.00
2023-03-31T14:55:31.663Z,1.15
2023-03-31T14:58:29.716Z,1.13
2023-03-31T15:01:21.400Z,1.15
2023-03-31T15:04:12.116Z,1.07
2023-03-31T15:07:05.024Z,1.17
2023-03-31T15:09:54.301Z,1.10
2023-03-31T15:12:42.427Z,1.17
2023-03-31T15:15:29.911Z,1.10
2023-03-31T15:18:17.793Z,1.40
2023-03-31T15:21:06.038Z,1.30
2023-03-31T15:23:54.487Z,1.40
2023-03-31T15:26:49.600Z,1.40
2023-03-31T15:29:39.788Z,1.40
2023-03-31T15:32:28.695Z,1.25
2023-03-31T15:35:23.548Z,1.38
2023-03-31T15:38:13.876Z,1.42
2023-03-31T15:41:02.286Z,1.30
2023-03-31T15:44:04.354Z,1.42
2023-03-31T15:46:59.579Z,1.40
2023-03-31T15:49:54.603Z,1.20
2023-03-31T15:52:49.803Z,1.40
2023-03-31T15:58:58.218Z,1.80
2023-03-31T16:01:47.297Z,1.50
2023-03-31T16:04:35.447Z,1.70
2023-03-31T16:07:27.145Z,1.92
2023-03-31T16:10:19.702Z,1.85
2023-03-31T16:13:09.705Z,1.88
2023-03-31T16:16:01.056Z,1.90
2023-03-31T16:18:51.148Z,2.08
2023-03-31T16:21:41.288Z,1.90
2023-03-31T16:24:33.014Z,2.10
2023-03-31T16:27:20.650Z,2.10
2023-03-31T16:30:13.692Z,2.30
2023-03-31T16:33:04.494Z,2.30
2023-03-31T16:35:56.342Z,2.30
2023-03-31T16:38:44.098Z,2.00
2023-03-31T16:41:32.027Z,2.45
2023-03-31T16:44:19.952Z,2.30
2023-03-31T16:47:07.714Z,2.22
2023-03-31T16:49:57.054Z,1.90
2023-03-31T16:52:45.438Z,1.90
2023-03-31T16:55:32.727Z,2.17
2023-03-31T16:58:20.173Z,2.27
2023-03-31T17:01:08.432Z,2.00
2023-03-31T17:03:56.938Z,2.10
2023-03-31T17:06:46.430Z,2.10
2023-03-31T17:09:34.267Z,2.10
2023-03-31T17:12:21.704Z,2.13
2023-03-31T17:15:11.268Z,2.17
2023-03-31T17:17:59.192Z,2.85
2023-03-31T17:20:46.945Z,2.05
2023-03-31T17:23:36.721Z,2.22
2023-03-31T17:26:24.455Z,2.60
2023-03-31T17:29:13.465Z,2.10
2023-03-31T17:32:03.064Z,2.58
2023-03-31T17:34:51.055Z,2.28
2023-03-31T17:37:39.435Z,2.33
2023-03-31T17:40:28.552Z,2.50
2023-03-31T17:43:16.588Z,2.50
2023-03-31T17:46:05.239Z,2.22
2023-03-31T17:48:53.902Z,2.63
2023-03-31T17:51:41.736Z,2.70
2023-03-31T17:54:29.442Z,2.70
2023-03-31T17:57:18.848Z,3.20
2023-03-31T18:00:09.045Z,3.35
2023-03-31T18:02:59.271Z,2.85
2023-03-31T18:05:47.263Z,2.95
2023-03-31T18:08:35.510Z,3.30
2023-03-31T18:11:23.856Z,3.55
2023-03-31T18:14:13.952Z,3.00
2023-03-31T18:17:02.090Z,3.25
2023-03-31T18:19:50.093Z,3.78
2023-03-31T18:22:37.455Z,3.40
2023-03-31T18:25:25.035Z,3.80
2023-03-31T18:28:13.256Z,3.45
2023-03-31T18:31:04.541Z,4.07
2023-03-31T18:33:56.529Z,3.60
2023-03-31T18:36:44.657Z,3.70
2023-03-31T18:39:31.488Z,3.90
2023-03-31T18:42:25.043Z,3.70
2023-03-31T18:45:13.456Z,3.58
2023-03-31T18:48:02.563Z,3.78
2023-03-31T18:50:52.101Z,3.87
2023-03-31T18:53:39.832Z,4.15
2023-03-31T18:56:27.359Z,4.20
2023-03-31T18:59:14.919Z,4.20
2023-03-31T19:02:02.477Z,4.13
2023-03-31T19:04:51.606Z,4.10
2023-03-31T19:07:39.536Z,4.40
2023-03-31T19:10:28.614Z,4.00
2023-03-31T19:13:17.147Z,3.72
2023-03-31T19:16:04.777Z,4.10
2023-03-31T19:18:53.788Z,4.10
2023-03-31T19:21:43.626Z,4.95
2023-03-31T19:24:31.100Z,4.38
2023-03-31T19:27:19.095Z,3.97
2023-03-31T19:30:07.932Z,4.43
2023-03-31T19:32:55.204Z,4.35
2023-03-31T19:35:43.991Z,4.13
2023-03-31T19:38:36.522Z,4.00
2023-03-31T19:41:24.312Z,4.15
2023-03-31T19:44:11.324Z,4.45
2023-03-31T19:46:58.822Z,5.18
2023-03-31T19:49:46.706Z,4.00
2023-03-31T19:52:34.401Z,3.97
2023-03-31T19:55:23.178Z,3.72
2023-03-31T19:58:11.585Z,4.00
2023-03-31T20:00:59.728Z,4.07
2023-03-31T20:03:53.063Z,4.00
2023-03-31T20:06:41.704Z,4.13
2023-03-31T20:09:29.433Z,3.90
2023-03-31T20:12:18.817Z,3.90
2023-03-31T20:15:07.801Z,3.95
2023-03-31T20:17:56.993Z,3.73
2023-03-31T20:20:45.708Z,3.83
2023-03-31T20:23:34.190Z,3.60
2023-03-31T20:26:24.845Z,3.60
2023-03-31T20:29:14.321Z,3.60
2023-03-31T20:32:02.741Z,3.15
2023-03-31T20:34:50.401Z,3.75
2023-03-31T20:37:37.826Z,3.35
2023-03-31T20:40:25.359Z,3.50
2023-03-31T20:43:13.090Z,2.90
2023-03-31T20:46:04.606Z,2.90
2023-03-31T20:48:55.024Z,2.80
2023-03-31T20:51:42.949Z,2.88
2023-03-31T20:54:30.786Z,2.73
2023-03-31T20:57:17.929Z,2.50
2023-03-31T21:00:07.381Z,2.70
2023-03-31T21:02:55.711Z,2.67
2023-03-31T21:05:44.601Z,2.95
2023-03-31T21:08:32.531Z,2.53
2023-03-31T21:11:20.470Z,2.75
2023-03-31T21:14:09.229Z,2.78
2023-03-31T21:16:56.923Z,2.95
2023-03-31T21:19:46.649Z,3.13
2023-03-31T21:22:33.953Z,3.00
2023-03-31T21:25:21.418Z,2.95
2023-03-31T21:28:08.602Z,3.03
2023-03-31T21:30:57.998Z,2.67
2023-03-31T21:33:46.290Z,2.78
2023-03-31T21:36:35.508Z,2.90
2023-03-31T21:39:23.235Z,2.83
2023-03-31T21:42:11.174Z,2.67
2023-03-31T21:44:59.235Z,2.63
2023-03-31T21:47:46.971Z,2.63
2023-03-31T21:50:34.799Z,2.25
2023-03-31T21:53:24.363Z,2.90
2023-03-31T21:56:11.934Z,2.80
2023-03-31T21:58:59.622Z,2.67
2023-03-31T22:01:46.443Z,2.75
2023-03-31T22:04:34.778Z,2.50
2023-03-31T22:07:22.517Z,2.45
2023-03-31T22:10:12.521Z,2.60
2023-03-31T22:13:00.018Z,2.83
2023-03-31T22:15:46.985Z,3.08
2023-03-31T22:18:34.169Z,3.00
2023-03-31T22:21:24.263Z,3.20
2023-03-31T22:24:13.570Z,3.40
2023-03-31T22:27:02.897Z,3.40
2023-03-31T22:29:50.652Z,3.67
2023-03-31T22:32:38.207Z,3.63
2023-03-31T22:35:26.096Z,3.80
2023-03-31T22:38:14.164Z,3.50
2023-03-31T22:41:01.600Z,3.22
2023-03-31T22:43:51.605Z,2.90
2023-03-31T22:46:39.829Z,2.90
2023-03-31T22:49:27.281Z,3.00
2023-03-31T22:52:14.665Z,3.30
2023-03-31T22:55:01.958Z,3.00
2023-03-31T22:57:49.431Z,2.90
2023-03-31T23:00:38.506Z,2.78
2023-03-31T23:03:26.411Z,3.00
2023-03-31T23:06:14.140Z,2.88
2023-03-31T23:09:01.875Z,2.80
2023-03-31T23:11:48.682Z,2.88
2023-03-31T23:14:36.319Z,2.63
2023-03-31T23:17:25.674Z,2.67
2023-03-31T23:20:14.557Z,3.28
2023-03-31T23:23:02.486Z,2.75
2023-03-31T23:25:50.114Z,2.90
2023-03-31T23:28:38.708Z,2.70
2023-03-31T23:31:29.256Z,2.88
2023-03-31T23:34:18.459Z,2.50
2023-03-31T23:37:06.680Z,2.83
2023-03-31T23:39:54.518Z,2.85
2023-03-31T23:42:41.934Z,2.60
2023-03-31T23:45:30.024Z,2.60
2023-03-31T23:48:18.128Z,2.50
2023-03-31T23:51:09.545Z,2.65
2023-03-31T23:53:57.791Z,2.75
2023-03-31T23:56:45.616Z,2.35
2023-03-31T23:59:33.261Z,2.30
